This is the latest recevied weather packets stored in our database for station/object DC5DM-13. If no packets are shown the sender has not sent any weather packets the latest 1 day(s).
| Time | Temp. | Humidity | Pressure | Rain* | Wind** | Luminosity | Snow |
|---|---|---|---|---|---|---|---|
| 1778096174 | 8.33° C | 98% | 1008.7 hPa | 0 mm | - | - | - |
| 1778094342 | 8.33° C | 98% | 1008.4 hPa | 0 mm | - | - | - |
| 1778093774 | 8.33° C | 98% | 1008.2 hPa | 0 mm | - | - | - |
| 1778087774 | 8.89° C | 99% | 1007.3 hPa | 0 mm | - | - | - |
| 1778087147 | 8.89° C | 99% | 1007.1 hPa | 0 mm | - | - | - |
| 1778076974 | 11.11° C | 99% | 1006.3 hPa | 0 mm | - | - | - |
| 1778075779 | 11.67° C | 99% | 1006.2 hPa | 0.25 mm | - | - | - |
| 1778073942 | 11.11° C | 99% | 1006 hPa | 1.52 mm | - | - | - |
| 1778070974 | 11.67° C | 99% | 1005.7 hPa | 1.02 mm | - | - | - |
| 1778069142 | 11.67° C | 99% | 1005.7 hPa | 1.27 mm | - | - | - |
| 1778067937 | 12.22° C | 99% | 1005.6 hPa | 1.02 mm | - | - | - |
| 1778067360 | 11.67° C | 99% | 1005.5 hPa | 1.02 mm | - | - | - |
| 1778064960 | 12.22° C | 98% | 1005.5 hPa | 0.25 mm | - | - | - |
| 1778063746 | 12.22° C | 97% | 1005.6 hPa | 0 mm | - | - | - |
| 1778063177 | 12.22° C | 97% | 1005.6 hPa | 0 mm | - | - | - |
| 1778062545 | 12.22° C | 97% | 1005.4 hPa | 0 mm | - | - | - |
| 1778061977 | 12.78° C | 98% | 1005.5 hPa | 0 mm | - | - | - |
| 1778061339 | 12.22° C | 98% | 1005.4 hPa | 0 mm | - | - | - |
| 1778060766 | 12.22° C | 99% | 1005.5 hPa | 0 mm | - | - | - |
| 1778059552 | 11.11° C | 99% | 1005.4 hPa | 0 mm | - | - | - |
| 1778058980 | 11.11° C | 99% | 1005.4 hPa | 0.25 mm | - | - | - |
| 1778057150 | 11.11° C | 99% | 1005.3 hPa | 0.25 mm | - | - | - |
| 1778055950 | 11.11° C | 99% | 1005.1 hPa | 0.25 mm | - | - | - |
| 1778055380 | 10.56° C | 99% | 1005.1 hPa | 0 mm | - | - | - |
| 1778054750 | 10.56° C | 99% | 1005.2 hPa | 0 mm | - | - | - |
* Rain latest hour (hover to see other rain measurements)
** Current wind speed in m/s (hover to see current wind gust speed)